createdAt,value
2022-11-18T00:01:20.581Z,7.72
2022-11-18T00:03:51.335Z,11.57
2022-11-18T00:06:20.899Z,11.55
2022-11-18T00:11:37.757Z,10.52
2022-11-18T00:14:23.715Z,8.25
2022-11-18T00:16:51.794Z,10.02
2022-11-18T00:19:22.127Z,9.90
2022-11-18T00:21:50.083Z,10.10
2022-11-18T00:24:21.336Z,9.32
2022-11-18T00:26:49.737Z,7.78
2022-11-18T00:29:17.956Z,9.27
2022-11-18T00:31:45.951Z,7.70
2022-11-18T00:34:15.047Z,8.70
2022-11-18T00:36:44.165Z,10.98
2022-11-18T00:39:13.341Z,9.35
2022-11-18T00:41:59.737Z,10.75
2022-11-18T00:44:27.612Z,9.35
2022-11-18T00:46:55.452Z,7.95
2022-11-18T00:49:26.113Z,10.50
2022-11-18T00:51:53.947Z,12.63
2022-11-18T00:54:22.429Z,9.27
2022-11-18T00:56:50.299Z,7.63
2022-11-18T00:59:18.584Z,7.18
2022-11-18T01:01:46.835Z,9.70
2022-11-18T01:04:17.375Z,8.82
2022-11-18T01:06:44.918Z,7.47
2022-11-18T01:09:12.392Z,7.78
2022-11-18T01:11:58.356Z,10.68
2022-11-18T01:14:26.185Z,7.75
2022-11-18T01:16:57.217Z,11.02
2022-11-18T01:19:24.814Z,10.48
2022-11-18T01:21:52.490Z,8.90
2022-11-18T01:24:19.777Z,9.75
2022-11-18T01:26:47.024Z,8.82
2022-11-18T01:29:14.379Z,9.13
2022-11-18T01:31:55.631Z,11.52
2022-11-18T01:34:30.091Z,9.13
2022-11-18T01:36:58.674Z,8.82
2022-11-18T01:39:26.461Z,7.30
2022-11-18T01:41:53.823Z,9.70
2022-11-18T01:44:39.925Z,11.43
2022-11-18T01:47:07.300Z,9.02
2022-11-18T01:49:34.617Z,10.02
2022-11-18T01:52:02.164Z,9.48
2022-11-18T01:54:35.421Z,11.57
2022-11-18T01:57:04.606Z,9.43
2022-11-18T01:59:34.242Z,11.65
2022-11-18T02:04:29.313Z,11.35
2022-11-18T02:06:57.411Z,12.23
2022-11-18T02:09:24.722Z,11.45
2022-11-18T02:11:54.042Z,10.15
2022-11-18T02:14:24.344Z,9.65
2022-11-18T02:17:10.424Z,8.30
2022-11-18T02:19:56.435Z,12.82
2022-11-18T02:22:26.584Z,10.68
2022-11-18T02:25:03.873Z,11.02
2022-11-18T02:27:34.214Z,13.20
2022-11-18T02:30:09.240Z,14.32
2022-11-18T02:32:39.700Z,11.35
2022-11-18T02:35:27.652Z,8.77
2022-11-18T02:37:57.663Z,11.40
2022-11-18T02:40:51.397Z,13.50
2022-11-18T02:43:24.979Z,11.98
2022-11-18T02:45:54.456Z,13.27
2022-11-18T02:48:23.059Z,14.02
2022-11-18T02:50:51.087Z,13.05
2022-11-18T02:53:20.553Z,10.40
2022-11-18T02:55:48.508Z,15.90
2022-11-18T02:58:17.012Z,13.48
2022-11-18T03:00:45.006Z,12.48
2022-11-18T03:03:25.239Z,12.98
2022-11-18T03:05:55.688Z,11.60
2022-11-18T03:08:26.811Z,11.48
2022-11-18T03:10:58.789Z,12.52
2022-11-18T03:13:29.756Z,17.60
2022-11-18T03:16:02.785Z,11.38
2022-11-18T03:18:43.307Z,17.70
2022-11-18T03:21:18.979Z,12.73
2022-11-18T03:23:56.792Z,12.48
2022-11-18T03:26:31.766Z,14.55
2022-11-18T03:29:18.847Z,20.05
2022-11-18T03:31:51.818Z,13.02
2022-11-18T03:34:21.859Z,11.95
2022-11-18T03:36:52.161Z,14.15
2022-11-18T03:39:21.900Z,12.63
2022-11-18T03:41:54.374Z,14.90
2022-11-18T03:44:25.514Z,13.95
2022-11-18T03:46:55.455Z,14.75
2022-11-18T03:49:27.070Z,15.77
2022-11-18T03:51:59.243Z,21.33
2022-11-18T03:54:29.830Z,14.38
2022-11-18T03:57:01.718Z,13.88
2022-11-18T03:59:58.470Z,16.10
2022-11-18T04:02:26.951Z,12.68
2022-11-18T04:04:56.730Z,12.77
2022-11-18T04:10:12.509Z,15.23
2022-11-18T04:12:42.900Z,15.50
2022-11-18T04:15:10.658Z,14.77
2022-11-18T04:17:37.972Z,16.95
2022-11-18T04:20:05.550Z,17.25
2022-11-18T04:22:32.946Z,17.48
2022-11-18T04:25:00.198Z,17.17
2022-11-18T04:27:27.495Z,17.10
2022-11-18T04:29:54.759Z,16.58
2022-11-18T04:32:22.097Z,15.63
2022-11-18T04:34:49.393Z,15.23
2022-11-18T04:37:16.639Z,21.83
2022-11-18T04:39:43.828Z,18.23
2022-11-18T04:42:11.225Z,17.42
2022-11-18T04:44:38.666Z,15.82
2022-11-18T04:47:07.394Z,15.73
2022-11-18T04:49:35.759Z,17.17
2022-11-18T04:52:03.215Z,15.48
2022-11-18T04:54:30.553Z,18.05
2022-11-18T04:56:58.294Z,18.20
2022-11-18T04:59:27.120Z,19.05
2022-11-18T05:01:54.877Z,19.50
2022-11-18T05:04:26.394Z,17.63
2022-11-18T05:06:53.966Z,17.85
2022-11-18T05:09:21.564Z,22.23
2022-11-18T05:12:08.094Z,15.48
2022-11-18T05:14:35.498Z,15.60
2022-11-18T05:17:03.681Z,16.63
2022-11-18T05:19:31.080Z,16.45
2022-11-18T05:21:58.501Z,19.08
2022-11-18T05:24:26.090Z,19.90
2022-11-18T05:26:53.779Z,23.10
2022-11-18T05:29:23.718Z,16.75
2022-11-18T05:31:51.709Z,19.67
2022-11-18T05:34:19.566Z,18.67
2022-11-18T05:36:47.070Z,18.77
2022-11-18T05:39:14.613Z,24.42
2022-11-18T05:42:00.775Z,16.75
2022-11-18T05:44:28.083Z,20.10
2022-11-18T05:46:55.388Z,17.95
2022-11-18T05:49:22.714Z,19.55
2022-11-18T05:51:49.994Z,18.65
2022-11-18T05:54:18.043Z,22.45
2022-11-18T05:56:46.161Z,22.15
2022-11-18T05:59:14.220Z,20.48
2022-11-18T06:01:56.611Z,18.42
2022-11-18T06:04:26.937Z,18.35
2022-11-18T06:06:55.607Z,18.73
2022-11-18T06:09:24.840Z,14.67
2022-11-18T06:11:53.952Z,16.60
2022-11-18T06:14:41.632Z,17.60
2022-11-18T06:17:11.346Z,19.95
2022-11-18T06:22:06.196Z,19.52
2022-11-18T06:24:35.052Z,18.85
2022-11-18T06:27:02.471Z,15.77
2022-11-18T06:29:31.377Z,15.55
2022-11-18T06:31:58.710Z,17.58
2022-11-18T06:34:26.282Z,16.05
2022-11-18T06:36:56.391Z,18.08
2022-11-18T06:39:23.828Z,21.63
2022-11-18T06:41:58.105Z,17.95
2022-11-18T06:44:25.384Z,17.10
2022-11-18T06:46:58.448Z,17.50
2022-11-18T06:49:26.398Z,17.13
2022-11-18T06:51:53.730Z,16.88
2022-11-18T06:54:21.083Z,15.98
2022-11-18T06:56:48.404Z,21.25
2022-11-18T06:59:21.634Z,16.55
2022-11-18T07:01:48.880Z,19.77
2022-11-18T07:04:16.217Z,21.35
2022-11-18T07:06:43.473Z,20.70
2022-11-18T07:09:10.802Z,15.98
2022-11-18T07:11:40.417Z,19.17
2022-11-18T07:16:36.563Z,17.67
2022-11-18T07:19:08.622Z,20.67
2022-11-18T07:21:35.974Z,20.60
2022-11-18T07:24:05.790Z,17.55
2022-11-18T07:26:33.176Z,20.55
2022-11-18T07:29:00.667Z,16.60
2022-11-18T07:31:28.147Z,19.90
2022-11-18T07:33:55.455Z,17.60
2022-11-18T07:36:30.876Z,20.50
2022-11-18T07:39:02.387Z,17.75
2022-11-18T07:41:30.869Z,17.33
2022-11-18T07:44:02.611Z,19.65
2022-11-18T07:46:31.756Z,18.35
2022-11-18T07:49:00.507Z,17.63
2022-11-18T07:51:28.984Z,15.30
2022-11-18T07:53:56.554Z,18.17
2022-11-18T07:56:23.976Z,21.42
2022-11-18T07:58:57.612Z,16.20
2022-11-18T08:01:29.183Z,13.93
2022-11-18T08:03:56.639Z,18.17
2022-11-18T08:06:24.469Z,16.98
2022-11-18T08:08:51.853Z,16.30
2022-11-18T08:11:22.733Z,16.88
2022-11-18T08:13:50.724Z,14.13
2022-11-18T08:16:19.365Z,13.85
2022-11-18T08:18:46.706Z,21.05
2022-11-18T08:21:15.205Z,19.15
2022-11-18T08:23:42.957Z,15.05
2022-11-18T08:26:14.413Z,19.05
2022-11-18T08:28:42.700Z,16.30
2022-11-18T08:31:11.105Z,15.25
2022-11-18T08:33:39.015Z,22.63
2022-11-18T08:36:16.401Z,16.27
2022-11-18T08:38:44.842Z,17.42
2022-11-18T08:41:16.509Z,20.35
2022-11-18T08:43:44.070Z,19.73
2022-11-18T08:46:11.784Z,22.42
2022-11-18T08:48:39.213Z,18.52
2022-11-18T08:51:06.859Z,25.45
2022-11-18T08:53:37.536Z,22.35
2022-11-18T08:56:07.391Z,24.13
2022-11-18T08:58:34.894Z,22.42
2022-11-18T09:01:09.616Z,23.40
2022-11-18T09:03:37.233Z,26.23
2022-11-18T09:06:12.582Z,24.88
2022-11-18T09:08:40.428Z,30.33
2022-11-18T09:11:15.436Z,25.45
2022-11-18T09:14:14.326Z,24.08
2022-11-18T09:16:33.749Z,27.40
2022-11-18T09:19:18.491Z,23.73
2022-11-18T09:21:51.430Z,25.30
2022-11-18T09:24:19.154Z,20.38
2022-11-18T09:26:48.205Z,24.67
2022-11-18T09:29:15.574Z,21.23
2022-11-18T09:31:43.009Z,20.05
2022-11-18T09:34:13.319Z,19.88
2022-11-18T09:36:41.390Z,16.88
2022-11-18T09:39:10.617Z,12.55
2022-11-18T09:41:46.003Z,16.50
2022-11-18T09:44:31.087Z,11.02
2022-11-18T09:47:18.393Z,11.05
2022-11-18T09:49:47.209Z,11.23
2022-11-18T09:52:26.927Z,9.15
2022-11-18T09:54:58.631Z,6.30
2022-11-18T09:57:41.073Z,10.43
2022-11-18T10:00:27.961Z,11.35
2022-11-18T10:03:03.361Z,12.23
2022-11-18T10:05:34.027Z,11.60
2022-11-18T10:08:10.059Z,9.38
2022-11-18T10:10:53.988Z,11.25
2022-11-18T10:14:01.924Z,12.60
2022-11-18T10:16:57.859Z,12.88
2022-11-18T10:19:55.103Z,11.82
2022-11-18T10:22:37.841Z,9.63
2022-11-18T10:25:09.751Z,12.00
2022-11-18T10:27:56.869Z,11.90
2022-11-18T10:30:29.884Z,9.73
2022-11-18T10:33:09.911Z,13.50
2022-11-18T10:35:40.429Z,12.60
2022-11-18T10:38:18.131Z,11.80
2022-11-18T10:41:08.116Z,12.02
2022-11-18T10:43:51.509Z,9.95
2022-11-18T10:46:27.674Z,12.35
2022-11-18T10:49:23.399Z,11.05
2022-11-18T10:52:11.751Z,13.85
2022-11-18T10:54:41.383Z,11.75
2022-11-18T10:57:15.209Z,11.00
2022-11-18T10:59:53.324Z,13.43
2022-11-18T11:02:34.049Z,11.02
2022-11-18T11:05:24.309Z,12.45
2022-11-18T11:08:29.165Z,12.68
2022-11-18T11:10:59.285Z,14.15
2022-11-18T11:13:32.088Z,13.50
2022-11-18T11:16:06.282Z,14.60
2022-11-18T11:18:44.311Z,10.57
2022-11-18T11:21:17.152Z,11.52
2022-11-18T11:23:48.289Z,12.73
2022-11-18T11:29:58.700Z,14.75
2022-11-18T11:32:45.657Z,16.88
2022-11-18T11:35:18.643Z,16.38
2022-11-18T11:38:06.433Z,16.88
2022-11-18T11:40:36.093Z,15.68
2022-11-18T11:45:36.771Z,14.80
2022-11-18T11:48:16.522Z,14.38
2022-11-18T11:51:05.113Z,18.83
2022-11-18T11:54:13.171Z,12.10
2022-11-18T11:57:03.634Z,12.30
2022-11-18T11:59:42.430Z,15.18
2022-11-18T12:02:24.432Z,13.15
2022-11-18T12:04:53.364Z,13.95
2022-11-18T12:07:29.032Z,12.73
2022-11-18T12:10:16.846Z,13.13
2022-11-18T12:12:53.706Z,15.85
2022-11-18T12:15:40.385Z,21.40
2022-11-18T12:18:18.479Z,14.73
2022-11-18T12:20:46.060Z,12.57
2022-11-18T12:23:16.425Z,15.55
2022-11-18T12:25:53.612Z,19.65
2022-11-18T12:28:35.506Z,16.92
2022-11-18T12:31:18.478Z,18.05
2022-11-18T12:33:45.845Z,13.75
2022-11-18T12:36:29.652Z,19.23
2022-11-18T12:38:57.600Z,18.20
2022-11-18T12:42:01.418Z,17.48
2022-11-18T12:44:30.224Z,18.55
2022-11-18T12:47:00.610Z,21.50
2022-11-18T12:49:28.080Z,18.42
2022-11-18T12:52:05.787Z,28.45
2022-11-18T12:54:36.499Z,23.23
2022-11-18T12:57:16.403Z,26.17
2022-11-18T12:59:43.914Z,27.23
2022-11-18T13:02:13.651Z,18.92
2022-11-18T13:04:45.768Z,20.20
2022-11-18T13:07:33.033Z,26.08
2022-11-18T13:10:01.396Z,29.30
2022-11-18T13:12:30.604Z,21.90
2022-11-18T13:15:17.123Z,18.75
2022-11-18T13:17:55.163Z,21.10
2022-11-18T13:20:36.561Z,32.30
2022-11-18T13:23:28.567Z,19.15
2022-11-18T13:26:09.817Z,18.63
2022-11-18T13:28:47.671Z,22.98
2022-11-18T13:31:40.135Z,25.58
2022-11-18T13:34:21.731Z,21.65
2022-11-18T13:36:55.839Z,22.75
2022-11-18T13:39:25.680Z,24.10
2022-11-18T13:42:06.761Z,22.45
2022-11-18T13:44:39.078Z,21.65
2022-11-18T13:47:28.362Z,23.60
2022-11-18T13:50:02.690Z,31.75
2022-11-18T13:52:45.349Z,24.70
2022-11-18T13:55:27.104Z,21.65
2022-11-18T13:58:17.696Z,24.42
2022-11-18T14:00:58.440Z,22.05
2022-11-18T14:03:47.728Z,20.55
2022-11-18T14:06:32.505Z,20.35
2022-11-18T14:09:28.816Z,20.50
2022-11-18T14:12:07.822Z,21.55
2022-11-18T14:14:37.555Z,24.50
2022-11-18T14:17:24.159Z,22.25
2022-11-18T14:19:56.156Z,25.55
2022-11-18T14:22:31.974Z,22.50
2022-11-18T14:25:01.397Z,24.30
2022-11-18T14:27:36.658Z,26.33
2022-11-18T14:30:25.284Z,25.95
2022-11-18T14:33:15.766Z,24.25
2022-11-18T14:35:45.287Z,22.45
2022-11-18T14:38:36.593Z,20.20
2022-11-18T14:41:05.263Z,24.58
2022-11-18T14:43:38.956Z,24.90
2022-11-18T14:46:12.009Z,20.98
2022-11-18T14:48:40.241Z,25.33
2022-11-18T14:51:08.894Z,32.85
2022-11-18T14:56:25.238Z,35.50
2022-11-18T15:02:00.765Z,28.60
2022-11-18T15:04:28.320Z,30.88
2022-11-18T15:06:56.356Z,36.15
2022-11-18T15:09:23.960Z,40.20
2022-11-18T15:11:51.490Z,33.03
2022-11-18T15:14:19.467Z,30.10
2022-11-18T15:16:55.465Z,38.08
2022-11-18T15:19:32.210Z,28.67
2022-11-18T15:22:01.722Z,31.45
2022-11-18T15:24:34.823Z,25.63
2022-11-18T15:27:06.274Z,29.13
2022-11-18T15:29:34.232Z,26.83
2022-11-18T15:32:05.226Z,27.38
2022-11-18T15:34:32.745Z,28.42
2022-11-18T15:37:00.181Z,28.52
2022-11-18T15:39:32.637Z,22.98
2022-11-18T15:42:02.659Z,30.30
2022-11-18T15:44:30.844Z,26.95
2022-11-18T15:47:00.574Z,28.38
2022-11-18T15:49:33.220Z,27.35
2022-11-18T15:52:01.488Z,22.00
2022-11-18T15:54:31.504Z,23.67
2022-11-18T15:56:59.475Z,24.35
2022-11-18T15:59:29.398Z,29.90
2022-11-18T16:02:00.328Z,29.17
2022-11-18T16:04:29.400Z,27.27
2022-11-18T16:07:01.373Z,27.92
2022-11-18T16:09:54.541Z,28.70
2022-11-18T16:12:43.299Z,25.90
2022-11-18T16:15:32.959Z,29.15
2022-11-18T16:18:04.069Z,29.73
2022-11-18T16:20:32.277Z,26.63
2022-11-18T16:23:00.415Z,36.20
2022-11-18T16:28:20.635Z,36.13
2022-11-18T16:31:07.970Z,32.22
2022-11-18T16:33:41.667Z,32.97
2022-11-18T16:48:42.393Z,32.38
2022-11-18T16:51:21.381Z,38.42
2022-11-18T16:54:01.133Z,37.45
2022-11-18T16:59:05.006Z,34.67
2022-11-18T17:01:35.317Z,40.15
2022-11-18T17:04:02.831Z,31.40
2022-11-18T17:06:31.801Z,39.28
2022-11-18T17:08:59.602Z,32.75
2022-11-18T17:11:27.363Z,33.53
2022-11-18T17:13:57.912Z,33.05
2022-11-18T17:16:26.406Z,39.83
2022-11-18T17:18:58.023Z,32.45
2022-11-18T17:21:25.854Z,35.03
2022-11-18T17:23:56.278Z,37.38
2022-11-18T17:26:25.044Z,36.42
2022-11-18T17:28:52.719Z,37.75
2022-11-18T17:31:21.299Z,36.97
2022-11-18T17:33:52.668Z,42.65
2022-11-18T17:36:21.099Z,42.33
2022-11-18T17:38:49.531Z,52.47
2022-11-18T17:41:36.752Z,37.78
2022-11-18T17:44:05.118Z,41.03
2022-11-18T17:46:38.004Z,39.58
2022-11-18T17:49:07.111Z,40.47
2022-11-18T17:51:34.567Z,42.65
2022-11-18T17:54:02.118Z,44.60
2022-11-18T17:56:29.520Z,44.60
2022-11-18T17:58:56.937Z,40.90
2022-11-18T18:01:24.679Z,42.53
2022-11-18T18:03:52.267Z,38.28
2022-11-18T18:06:22.846Z,39.60
2022-11-18T18:08:50.306Z,40.58
2022-11-18T18:11:18.780Z,36.88
2022-11-18T18:14:05.270Z,42.03
2022-11-18T18:16:33.772Z,36.70
2022-11-18T18:19:02.485Z,38.83
2022-11-18T18:21:30.018Z,40.83
2022-11-18T18:23:57.856Z,38.17
2022-11-18T18:26:31.456Z,45.97
2022-11-18T18:29:02.848Z,64.18
2022-11-18T18:31:36.032Z,48.67
2022-11-18T18:34:06.209Z,42.50
2022-11-18T18:36:34.027Z,46.58
2022-11-18T18:39:02.627Z,38.50
2022-11-18T18:41:35.873Z,36.97
2022-11-18T18:44:18.045Z,36.20
2022-11-18T18:47:15.264Z,36.28
2022-11-18T18:49:48.972Z,35.15
2022-11-18T18:52:23.759Z,36.30
2022-11-18T18:54:53.673Z,37.60
2022-11-18T18:57:21.964Z,39.55
2022-11-18T18:59:50.344Z,36.47
2022-11-18T19:02:24.171Z,40.17
2022-11-18T19:05:02.019Z,39.28
2022-11-18T19:07:31.760Z,41.15
2022-11-18T19:10:05.579Z,35.35
2022-11-18T19:13:06.176Z,36.45
2022-11-18T19:15:39.627Z,34.25
2022-11-18T19:18:10.192Z,34.63
2022-11-18T19:20:43.713Z,31.70
2022-11-18T19:23:18.573Z,32.78
2022-11-18T19:25:49.275Z,34.65
2022-11-18T19:28:20.145Z,33.42
2022-11-18T19:30:47.873Z,29.58
2022-11-18T19:33:15.601Z,29.75
2022-11-18T19:35:43.198Z,27.35
2022-11-18T19:38:17.679Z,35.90
2022-11-18T19:40:48.455Z,31.23
2022-11-18T19:43:16.136Z,37.95
2022-11-18T19:45:51.115Z,30.05
2022-11-18T19:48:18.572Z,34.22
2022-11-18T19:50:46.185Z,38.10
2022-11-18T19:53:35.053Z,30.75
2022-11-18T19:56:09.867Z,36.17
2022-11-18T19:58:38.163Z,36.85
2022-11-18T20:01:27.808Z,39.45
2022-11-18T20:06:23.497Z,42.20
2022-11-18T20:08:54.497Z,42.95
2022-11-18T20:11:21.978Z,40.88
2022-11-18T20:13:49.412Z,37.30
2022-11-18T20:16:24.935Z,35.50
2022-11-18T20:18:56.567Z,34.10
2022-11-18T20:21:24.746Z,30.55
2022-11-18T20:24:04.152Z,35.45
2022-11-18T20:26:33.228Z,37.20
2022-11-18T20:29:01.019Z,31.95
2022-11-18T20:31:31.426Z,36.28
2022-11-18T20:33:59.302Z,33.33
2022-11-18T20:36:37.459Z,33.85
2022-11-18T20:39:06.710Z,38.83
2022-11-18T20:41:37.725Z,38.63
2022-11-18T20:44:09.021Z,36.88
2022-11-18T20:46:36.647Z,37.67
2022-11-18T20:49:22.851Z,31.83
2022-11-18T20:51:53.138Z,38.58
2022-11-18T20:54:25.250Z,40.17
2022-11-18T20:59:21.286Z,35.00
2022-11-18T21:01:49.717Z,38.45
2022-11-18T21:04:17.779Z,34.15
2022-11-18T21:06:45.907Z,32.35
2022-11-18T21:09:48.483Z,37.28
2022-11-18T21:13:11.167Z,33.70
2022-11-18T21:15:39.083Z,33.28
2022-11-18T21:18:22.358Z,33.85
2022-11-18T21:21:10.212Z,35.40
2022-11-18T21:23:37.895Z,36.88
2022-11-18T21:26:13.009Z,33.67
2022-11-18T21:28:41.171Z,36.55
2022-11-18T21:31:13.927Z,32.92
2022-11-18T21:33:41.568Z,37.38
2022-11-18T21:36:16.408Z,31.17
2022-11-18T21:38:49.075Z,38.80
2022-11-18T23:31:45.469Z,41.35
2022-11-18T23:34:26.986Z,38.67
2022-11-18T23:37:07.585Z,37.95
2022-11-18T23:39:42.042Z,39.35
2022-11-18T23:42:15.245Z,42.10
2022-11-18T23:45:04.839Z,43.97
2022-11-18T23:47:33.597Z,42.25
2022-11-18T23:50:05.974Z,51.25
2022-11-18T23:52:34.382Z,41.25
2022-11-18T23:55:13.487Z,38.97
2022-11-18T23:58:03.313Z,47.90
